EZY18TV LERS-EGCC
Flight info
| Callsign | EZY18TV |
|---|---|
| Flight time | N/A |
| Altitude | 38000 |
| Route | NATPI DCT EVNAM DCT TUPAR UN861 ANG DCT AKIKI UN867 AVANT UM184 HEMEL T420 ELVOS |
| Aircraft | A320/M-SDE3FGHIRWY/LB1 |
Departure
| Time | 2026-04-25 11:58 |
|---|---|
| Airport | Reus Airport (LERS) |
Arrival
| Time | N/A |
|---|---|
| Airport | Manchester Airport (EGCC) |
| Time | Latitude | Longitude | Altitude | Speed | Heading |
|---|---|---|---|---|---|
| 2026-04-25 11:16 | 41.14683 | 1.15612 | 239 ft | 0 kts | 343° |
| 2026-04-25 11:41 | 41.14677 | 1.15615 | 239 ft | 4 kts | 342° |
| 2026-04-25 11:41 | 41.14651 | 1.15627 | 239 ft | 4 kts | 336° |
| 2026-04-25 11:41 | 41.14627 | 1.15643 | 239 ft | 4 kts | 328° |
| 2026-04-25 11:41 | 41.14606 | 1.15663 | 239 ft | 0 kts | 318° |
| 2026-04-25 11:42 | 41.14685 | 1.15611 | 240 ft | 0 kts | 343° |
| 2026-04-25 11:45 | 41.14675 | 1.15616 | 239 ft | 4 kts | 339° |
| 2026-04-25 11:46 | 41.14650 | 1.15629 | 239 ft | 4 kts | 343° |
| 2026-04-25 11:46 | 41.14624 | 1.15636 | 239 ft | 4 kts | 349° |
| 2026-04-25 11:46 | 41.14598 | 1.15641 | 239 ft | 2 kts | 358° |
| 2026-04-25 11:46 | 41.14592 | 1.15641 | 239 ft | 0 kts | 358° |
| 2026-04-25 11:48 | 41.14592 | 1.15642 | 239 ft | 0 kts | 358° |
| 2026-04-25 11:51 | 41.14602 | 1.15647 | 239 ft | 2 kts | 30° |
| 2026-04-25 11:51 | 41.14610 | 1.15667 | 239 ft | 2 kts | 66° |
| 2026-04-25 11:52 | 41.14627 | 1.15725 | 239 ft | 13 kts | 70° |
| 2026-04-25 11:52 | 41.14659 | 1.15836 | 239 ft | 13 kts | 69° |
| 2026-04-25 11:52 | 41.14702 | 1.15980 | 240 ft | 18 kts | 68° |
| 2026-04-25 11:52 | 41.14749 | 1.16145 | 240 ft | 20 kts | 69° |
| 2026-04-25 11:53 | 41.14801 | 1.16321 | 240 ft | 21 kts | 69° |
| 2026-04-25 11:53 | 41.14857 | 1.16511 | 241 ft | 23 kts | 69° |
| 2026-04-25 11:53 | 41.14915 | 1.16712 | 241 ft | 24 kts | 70° |
| 2026-04-25 11:53 | 41.14977 | 1.16925 | 241 ft | 25 kts | 69° |
| 2026-04-25 11:54 | 41.15043 | 1.17149 | 242 ft | 27 kts | 69° |
| 2026-04-25 11:54 | 41.15113 | 1.17381 | 242 ft | 28 kts | 68° |
| 2026-04-25 11:54 | 41.15254 | 1.17871 | 243 ft | 29 kts | 68° |
| 2026-04-25 11:55 | 41.15321 | 1.18099 | 244 ft | 23 kts | 69° |
| 2026-04-25 11:55 | 41.15327 | 1.18229 | 244 ft | 9 kts | 130° |
| 2026-04-25 11:55 | 41.15306 | 1.18248 | 244 ft | 0 kts | 151° |
| 2026-04-25 11:56 | 41.15300 | 1.18251 | 244 ft | 6 kts | 155° |
| 2026-04-25 11:56 | 41.15251 | 1.18277 | 244 ft | 7 kts | 160° |
| 2026-04-25 11:57 | 41.15208 | 1.18272 | 245 ft | 5 kts | 206° |
| 2026-04-25 11:57 | 41.15180 | 1.18220 | 245 ft | 14 kts | 245° |
| 2026-04-25 11:57 | 41.15067 | 1.17845 | 246 ft | 83 kts | 250° |
| 2026-04-25 11:57 | 41.14771 | 1.16840 | 244 ft | 148 kts | 248° |
| 2026-04-25 11:58 | 41.14375 | 1.15490 | 678 ft | 160 kts | 248° |
| 2026-04-25 11:58 | 41.13958 | 1.14105 | 1331 ft | 164 kts | 247° |
| 2026-04-25 11:58 | 41.13512 | 1.12706 | 1989 ft | 164 kts | 246° |
| 2026-04-25 11:58 | 41.13035 | 1.11314 | 2533 ft | 172 kts | 246° |
| 2026-04-25 11:59 | 41.12550 | 1.09747 | 2840 ft | 195 kts | 249° |
| 2026-04-25 11:59 | 41.12040 | 1.07972 | 3151 ft | 218 kts | 249° |
| 2026-04-25 11:59 | 41.11491 | 1.05995 | 3524 ft | 240 kts | 249° |
| 2026-04-25 12:00 | 41.10303 | 1.01453 | 4689 ft | 274 kts | 256° |
| 2026-04-25 12:00 | 41.10297 | 0.98907 | 5482 ft | 283 kts | 284° |
| 2026-04-25 12:00 | 41.12757 | 0.94972 | 7226 ft | 288 kts | 338° |
| 2026-04-25 12:01 | 41.14690 | 0.94358 | 8116 ft | 287 kts | 0° |
| 2026-04-25 12:01 | 41.16663 | 0.94427 | 9018 ft | 288 kts | 4° |
| 2026-04-25 12:01 | 41.18669 | 0.94546 | 9950 ft | 289 kts | 4° |
| 2026-04-25 12:01 | 41.20706 | 0.94671 | 10516 ft | 303 kts | 4° |
| 2026-04-25 12:02 | 41.25224 | 0.94939 | 11248 ft | 340 kts | 3° |
| 2026-04-25 12:02 | 41.27606 | 0.95072 | 11968 ft | 344 kts | 3° |
| 2026-04-25 12:02 | 41.30015 | 0.95205 | 12715 ft | 348 kts | 3° |
| 2026-04-25 12:03 | 41.32452 | 0.95337 | 13470 ft | 352 kts | 4° |
| 2026-04-25 12:03 | 41.34877 | 0.95779 | 14152 ft | 355 kts | 14° |
| 2026-04-25 12:03 | 41.37215 | 0.96882 | 14757 ft | 359 kts | 26° |
| 2026-04-25 12:03 | 41.39359 | 0.98616 | 15403 ft | 362 kts | 36° |